AI6506 VABB-VOMM
Flight info
| Callsign | AI6506 |
|---|---|
| Flight time | 1h 32m |
| Altitude | 35000 |
| Route | VABB/27 VEVAK2A VEVAK DCT OKEGO DCT MB362 DCT EPKOS Q9 OPAMO DCT |
| Aircraft | A320/M-V/N |
Departure
| Time | 2026-04-20 20:42 |
|---|---|
| Airport | Chhatrapati Shivaji Maharaj International Airport (VABB) |
Arrival
| Time | 2026-04-20 22:14 |
|---|---|
| Airport | Chennai International Airport (VOMM) |
| Time | Latitude | Longitude | Altitude | Speed | Heading |
|---|---|---|---|---|---|
| 2026-04-20 20:17 | 19.09616 | 72.87685 | 49 ft | 0 kts | 226° |
| 2026-04-20 20:24 | 19.09624 | 72.87693 | 48 ft | 4 kts | 220° |
| 2026-04-20 20:24 | 19.09646 | 72.87708 | 49 ft | 4 kts | 199° |
| 2026-04-20 20:25 | 19.09672 | 72.87714 | 49 ft | 4 kts | 181° |
| 2026-04-20 20:25 | 19.09699 | 72.87712 | 47 ft | 4 kts | 167° |
| 2026-04-20 20:25 | 19.09722 | 72.87706 | 46 ft | 1 kts | 165° |
| 2026-04-20 20:30 | 19.09720 | 72.87707 | 46 ft | 2 kts | 164° |
| 2026-04-20 20:31 | 19.09702 | 72.87716 | 46 ft | 4 kts | 143° |
| 2026-04-20 20:31 | 19.09680 | 72.87743 | 46 ft | 6 kts | 128° |
| 2026-04-20 20:31 | 19.09652 | 72.87779 | 49 ft | 7 kts | 131° |
| 2026-04-20 20:31 | 19.09620 | 72.87818 | 48 ft | 7 kts | 130° |
| 2026-04-20 20:32 | 19.09582 | 72.87851 | 49 ft | 7 kts | 159° |
| 2026-04-20 20:32 | 19.09542 | 72.87841 | 49 ft | 5 kts | 200° |
| 2026-04-20 20:32 | 19.09512 | 72.87827 | 49 ft | 4 kts | 204° |
| 2026-04-20 20:32 | 19.09484 | 72.87811 | 49 ft | 7 kts | 208° |
| 2026-04-20 20:33 | 19.09424 | 72.87771 | 49 ft | 13 kts | 212° |
| 2026-04-20 20:33 | 19.09333 | 72.87724 | 49 ft | 15 kts | 209° |
| 2026-04-20 20:33 | 19.09239 | 72.87677 | 49 ft | 15 kts | 193° |
| 2026-04-20 20:33 | 19.09157 | 72.87687 | 49 ft | 9 kts | 138° |
| 2026-04-20 20:34 | 19.09146 | 72.87737 | 49 ft | 6 kts | 54° |
| 2026-04-20 20:34 | 19.09138 | 72.87778 | 47 ft | 9 kts | 118° |
| 2026-04-20 20:34 | 19.09076 | 72.87814 | 49 ft | 10 kts | 146° |
| 2026-04-20 20:34 | 19.09058 | 72.87875 | 49 ft | 9 kts | 89° |
| 2026-04-20 20:35 | 19.09059 | 72.87934 | 49 ft | 8 kts | 89° |
| 2026-04-20 20:35 | 19.09060 | 72.87985 | 49 ft | 6 kts | 96° |
| 2026-04-20 20:35 | 19.09055 | 72.88029 | 46 ft | 6 kts | 98° |
| 2026-04-20 20:35 | 19.09033 | 72.88051 | 48 ft | 4 kts | 171° |
| 2026-04-20 20:36 | 19.09002 | 72.88052 | 48 ft | 5 kts | 178° |
| 2026-04-20 20:36 | 19.08997 | 72.88052 | 48 ft | 0 kts | 178° |
| 2026-04-20 20:39 | 19.08989 | 72.88052 | 45 ft | 2 kts | 178° |
| 2026-04-20 20:40 | 19.08974 | 72.88052 | 46 ft | 3 kts | 180° |
| 2026-04-20 20:40 | 19.08925 | 72.88044 | 46 ft | 10 kts | 201° |
| 2026-04-20 20:40 | 19.08890 | 72.87998 | 47 ft | 7 kts | 258° |
| 2026-04-20 20:40 | 19.08889 | 72.87981 | 47 ft | 0 kts | 267° |
| 2026-04-20 20:41 | 19.08888 | 72.87962 | 47 ft | 13 kts | 268° |
| 2026-04-20 20:41 | 19.08883 | 72.87588 | 48 ft | 87 kts | 269° |
| 2026-04-20 20:41 | 19.08872 | 72.86733 | 51 ft | 143 kts | 269° |
| 2026-04-20 20:41 | 19.08879 | 72.85555 | 337 ft | 160 kts | 272° |
| 2026-04-20 20:42 | 19.08924 | 72.84392 | 737 ft | 157 kts | 278° |
| 2026-04-20 20:42 | 19.08959 | 72.83143 | 1195 ft | 175 kts | 271° |
| 2026-04-20 20:42 | 19.08936 | 72.81789 | 1635 ft | 193 kts | 270° |
| 2026-04-20 20:42 | 19.08871 | 72.80324 | 1966 ft | 211 kts | 270° |
| 2026-04-20 20:43 | 19.08824 | 72.79228 | 2134 ft | 230 kts | 270° |
| 2026-04-20 20:43 | 19.08757 | 72.77447 | 2485 ft | 255 kts | 270° |
| 2026-04-20 20:43 | 19.08637 | 72.74888 | 3355 ft | 269 kts | 262° |
| 2026-04-20 20:43 | 19.07806 | 72.73095 | 4078 ft | 282 kts | 227° |
| 2026-04-20 20:44 | 19.06111 | 72.72054 | 4857 ft | 289 kts | 193° |
| 2026-04-20 20:44 | 19.04755 | 72.71987 | 5391 ft | 291 kts | 171° |
| 2026-04-20 20:44 | 19.02932 | 72.72856 | 6222 ft | 291 kts | 138° |
| 2026-04-20 20:44 | 19.01517 | 72.74333 | 7054 ft | 290 kts | 138° |
| 2026-04-20 20:45 | 18.99728 | 72.75293 | 7887 ft | 292 kts | 167° |
| 2026-04-20 20:45 | 18.97711 | 72.75482 | 8795 ft | 292 kts | 180° |
| 2026-04-20 20:45 | 18.95679 | 72.75342 | 9677 ft | 293 kts | 184° |
| 2026-04-20 20:45 | 18.93625 | 72.75107 | 10208 ft | 307 kts | 185° |
| 2026-04-20 20:46 | 18.91437 | 72.74880 | 10412 ft | 330 kts | 184° |
| 2026-04-20 20:46 | 18.89090 | 72.74689 | 10775 ft | 345 kts | 182° |
| 2026-04-20 20:46 | 18.86674 | 72.74551 | 11377 ft | 350 kts | 181° |
| 2026-04-20 20:46 | 18.84225 | 72.74454 | 12068 ft | 354 kts | 181° |
| 2026-04-20 20:47 | 18.81754 | 72.74376 | 12767 ft | 357 kts | 181° |
| 2026-04-20 20:47 | 18.79267 | 72.74329 | 13472 ft | 360 kts | 178° |
| 2026-04-20 20:47 | 18.76774 | 72.74662 | 14093 ft | 363 kts | 167° |
| 2026-04-20 20:47 | 18.74348 | 72.75452 | 14677 ft | 367 kts | 161° |
| 2026-04-20 20:48 | 18.71910 | 72.76313 | 15254 ft | 372 kts | 162° |
| 2026-04-20 20:48 | 18.69440 | 72.77177 | 15820 ft | 376 kts | 162° |
| 2026-04-20 20:48 | 18.66944 | 72.78041 | 16392 ft | 380 kts | 162° |
| 2026-04-20 20:48 | 18.64417 | 72.78912 | 16962 ft | 384 kts | 162° |
| 2026-04-20 20:49 | 18.61860 | 72.79795 | 17498 ft | 389 kts | 162° |
| 2026-04-20 20:49 | 18.59273 | 72.80692 | 18015 ft | 394 kts | 162° |
| 2026-04-20 20:49 | 18.56658 | 72.81598 | 18484 ft | 398 kts | 162° |
| 2026-04-20 20:49 | 18.54015 | 72.82516 | 18969 ft | 401 kts | 162° |
| 2026-04-20 20:50 | 18.51358 | 72.83438 | 19466 ft | 404 kts | 163° |
| 2026-04-20 20:50 | 18.48682 | 72.84368 | 19961 ft | 406 kts | 163° |
| 2026-04-20 20:50 | 18.45986 | 72.85304 | 20456 ft | 409 kts | 163° |
| 2026-04-20 20:50 | 18.43283 | 72.86239 | 20939 ft | 411 kts | 163° |
| 2026-04-20 20:51 | 18.40556 | 72.87180 | 21417 ft | 414 kts | 163° |
| 2026-04-20 20:51 | 18.37807 | 72.88129 | 21889 ft | 417 kts | 163° |
| 2026-04-20 20:51 | 18.35044 | 72.89089 | 22357 ft | 419 kts | 164° |
| 2026-04-20 20:51 | 18.32268 | 72.90054 | 22818 ft | 422 kts | 164° |
| 2026-04-20 20:52 | 18.29472 | 72.91027 | 23276 ft | 424 kts | 164° |
| 2026-04-20 20:52 | 18.26660 | 72.92005 | 23674 ft | 427 kts | 165° |
| 2026-04-20 20:52 | 18.23836 | 72.92985 | 24053 ft | 429 kts | 165° |
| 2026-04-20 20:52 | 18.21013 | 72.93961 | 24429 ft | 431 kts | 165° |
| 2026-04-20 20:53 | 18.18138 | 72.94950 | 24803 ft | 433 kts | 165° |
| 2026-04-20 20:53 | 18.15267 | 72.95936 | 25186 ft | 434 kts | 165° |
| 2026-04-20 20:53 | 18.12391 | 72.96924 | 25574 ft | 436 kts | 165° |
| 2026-04-20 20:53 | 18.09609 | 72.98137 | 25929 ft | 442 kts | 156° |
| 2026-04-20 20:54 | 18.06996 | 72.99888 | 26285 ft | 450 kts | 146° |
| 2026-04-20 20:54 | 18.04630 | 73.02067 | 26637 ft | 455 kts | 141° |
| 2026-04-20 20:54 | 18.02285 | 73.04319 | 26990 ft | 457 kts | 141° |
| 2026-04-20 20:54 | 17.99927 | 73.06576 | 27324 ft | 460 kts | 142° |
| 2026-04-20 20:55 | 17.97551 | 73.08844 | 27666 ft | 462 kts | 142° |
| 2026-04-20 20:55 | 17.95167 | 73.11116 | 27980 ft | 464 kts | 142° |
| 2026-04-20 20:55 | 17.92766 | 73.13400 | 28303 ft | 467 kts | 142° |
| 2026-04-20 20:55 | 17.90358 | 73.15692 | 28638 ft | 468 kts | 142° |
| 2026-04-20 20:56 | 17.87939 | 73.17996 | 28933 ft | 471 kts | 142° |
| 2026-04-20 20:56 | 17.85508 | 73.20314 | 29230 ft | 473 kts | 142° |
| 2026-04-20 20:56 | 17.83068 | 73.22639 | 29507 ft | 475 kts | 142° |
| 2026-04-20 20:56 | 17.80611 | 73.24978 | 29807 ft | 478 kts | 142° |
| 2026-04-20 20:57 | 17.78145 | 73.27327 | 30136 ft | 478 kts | 142° |
| 2026-04-20 20:57 | 17.75695 | 73.29666 | 30520 ft | 476 kts | 143° |
| 2026-04-20 20:57 | 17.73253 | 73.31997 | 30920 ft | 473 kts | 143° |
| 2026-04-20 20:57 | 17.70821 | 73.34313 | 31331 ft | 471 kts | 144° |
| 2026-04-20 20:58 | 17.68402 | 73.36613 | 31755 ft | 468 kts | 144° |
| 2026-04-20 20:58 | 17.65993 | 73.38904 | 32163 ft | 467 kts | 144° |
| 2026-04-20 20:58 | 17.63591 | 73.41187 | 32572 ft | 464 kts | 145° |
| 2026-04-20 20:58 | 17.61206 | 73.43451 | 32985 ft | 462 kts | 145° |
| 2026-04-20 20:59 | 17.58829 | 73.45704 | 33414 ft | 460 kts | 146° |
| 2026-04-20 20:59 | 17.56465 | 73.47945 | 33834 ft | 457 kts | 146° |
| 2026-04-20 20:59 | 17.54139 | 73.50149 | 34179 ft | 455 kts | 146° |
| 2026-04-20 20:59 | 17.51794 | 73.52369 | 34538 ft | 453 kts | 146° |
| 2026-04-20 21:00 | 17.49458 | 73.54583 | 34861 ft | 452 kts | 146° |
| 2026-04-20 21:00 | 17.47135 | 73.56784 | 35161 ft | 450 kts | 146° |
| 2026-04-20 21:00 | 17.44819 | 73.58978 | 35451 ft | 448 kts | 147° |
| 2026-04-20 21:00 | 17.42509 | 73.61166 | 35739 ft | 447 kts | 147° |
| 2026-04-20 21:01 | 17.37896 | 73.65532 | 35866 ft | 446 kts | 147° |
| 2026-04-20 21:01 | 17.33301 | 73.69871 | 35239 ft | 443 kts | 147° |
| 2026-04-20 21:02 | 17.31017 | 73.72028 | 34946 ft | 444 kts | 147° |
| 2026-04-20 21:02 | 17.28711 | 73.74200 | 34848 ft | 447 kts | 146° |
| 2026-04-20 21:02 | 17.24079 | 73.78568 | 34873 ft | 449 kts | 146° |
| 2026-04-20 21:03 | 17.19442 | 73.82958 | 34887 ft | 450 kts | 146° |
| 2026-04-20 21:03 | 17.14799 | 73.87343 | 34888 ft | 450 kts | 146° |
| 2026-04-20 21:04 | 17.10152 | 73.91712 | 34887 ft | 449 kts | 147° |
| 2026-04-20 21:04 | 17.05506 | 73.96082 | 34897 ft | 449 kts | 146° |
| 2026-04-20 21:05 | 17.00875 | 74.00447 | 34880 ft | 448 kts | 146° |
| 2026-04-20 21:05 | 16.96250 | 74.04798 | 34892 ft | 448 kts | 146° |
| 2026-04-20 21:06 | 16.91618 | 74.09152 | 34894 ft | 448 kts | 146° |
| 2026-04-20 21:06 | 16.87199 | 74.13794 | 34890 ft | 459 kts | 137° |
| 2026-04-20 21:07 | 16.83237 | 74.19034 | 34894 ft | 459 kts | 136° |
| 2026-04-20 21:07 | 16.79285 | 74.24275 | 34897 ft | 459 kts | 137° |
| 2026-04-20 21:08 | 16.75330 | 74.29499 | 34887 ft | 459 kts | 137° |
| 2026-04-20 21:08 | 16.71367 | 74.34724 | 34903 ft | 459 kts | 137° |
| 2026-04-20 21:09 | 16.67410 | 74.39940 | 34890 ft | 458 kts | 136° |
| 2026-04-20 21:09 | 16.63528 | 74.45159 | 34899 ft | 460 kts | 135° |
| 2026-04-20 21:10 | 16.59601 | 74.50406 | 34888 ft | 458 kts | 137° |
| 2026-04-20 21:10 | 16.55586 | 74.55552 | 34887 ft | 457 kts | 137° |
| 2026-04-20 21:11 | 16.51594 | 74.60716 | 34887 ft | 458 kts | 137° |
| 2026-04-20 21:11 | 16.47637 | 74.65914 | 34879 ft | 458 kts | 136° |
| 2026-04-20 21:12 | 16.43695 | 74.71110 | 34885 ft | 456 kts | 137° |
| 2026-04-20 21:12 | 16.39754 | 74.76284 | 34884 ft | 456 kts | 137° |
| 2026-04-20 21:13 | 16.35810 | 74.81449 | 34878 ft | 456 kts | 137° |
| 2026-04-20 21:13 | 16.31864 | 74.86610 | 34882 ft | 456 kts | 137° |
| 2026-04-20 21:14 | 16.27918 | 74.91768 | 34882 ft | 456 kts | 137° |
| 2026-04-20 21:14 | 16.23972 | 74.96930 | 34882 ft | 456 kts | 137° |
| 2026-04-20 21:15 | 16.20029 | 75.02092 | 34879 ft | 456 kts | 137° |
| 2026-04-20 21:15 | 16.16082 | 75.07248 | 34838 ft | 455 kts | 137° |
| 2026-04-20 21:16 | 16.12143 | 75.12381 | 34870 ft | 453 kts | 137° |
| 2026-04-20 21:16 | 16.08213 | 75.17497 | 34871 ft | 453 kts | 137° |
| 2026-04-20 21:17 | 16.04281 | 75.22617 | 34871 ft | 453 kts | 137° |
| 2026-04-20 21:17 | 16.00354 | 75.27737 | 34870 ft | 453 kts | 137° |
| 2026-04-20 21:18 | 15.96425 | 75.32851 | 34879 ft | 453 kts | 137° |
| 2026-04-20 21:18 | 15.92494 | 75.37960 | 34876 ft | 453 kts | 137° |
| 2026-04-20 21:19 | 15.88561 | 75.43068 | 34874 ft | 453 kts | 137° |
| 2026-04-20 21:20 | 15.82671 | 75.50699 | 34883 ft | 453 kts | 137° |
| 2026-04-20 21:20 | 15.78734 | 75.55806 | 34882 ft | 453 kts | 137° |
| 2026-04-20 21:21 | 15.74800 | 75.60908 | 34882 ft | 453 kts | 137° |
| 2026-04-20 21:21 | 15.70861 | 75.66007 | 34890 ft | 453 kts | 137° |
| 2026-04-20 21:22 | 15.66915 | 75.71105 | 34889 ft | 453 kts | 137° |
| 2026-04-20 21:22 | 15.62977 | 75.76192 | 34889 ft | 453 kts | 137° |
| 2026-04-20 21:23 | 15.59033 | 75.81293 | 34893 ft | 454 kts | 137° |
| 2026-04-20 21:23 | 15.55073 | 75.86412 | 34893 ft | 455 kts | 137° |
| 2026-04-20 21:24 | 15.51104 | 75.91536 | 34891 ft | 456 kts | 137° |
| 2026-04-20 21:24 | 15.47131 | 75.96667 | 34896 ft | 456 kts | 137° |
| 2026-04-20 21:25 | 15.43155 | 76.01782 | 34896 ft | 455 kts | 137° |
| 2026-04-20 21:25 | 15.39183 | 76.06898 | 34896 ft | 456 kts | 137° |
| 2026-04-20 21:26 | 15.35215 | 76.12019 | 34894 ft | 456 kts | 137° |
| 2026-04-20 21:26 | 15.31233 | 76.17141 | 34900 ft | 458 kts | 137° |
| 2026-04-20 21:27 | 15.27230 | 76.22277 | 34903 ft | 459 kts | 137° |
| 2026-04-20 21:27 | 15.23901 | 76.26553 | 34904 ft | 459 kts | 137° |
| 2026-04-20 21:28 | 15.19895 | 76.31695 | 34913 ft | 458 kts | 135° |
| 2026-04-20 21:28 | 15.15245 | 76.37662 | 34913 ft | 458 kts | 135° |
| 2026-04-20 21:29 | 15.11890 | 76.41957 | 34913 ft | 458 kts | 135° |
| 2026-04-20 21:29 | 15.07883 | 76.47075 | 34925 ft | 458 kts | 135° |
| 2026-04-20 21:30 | 15.03877 | 76.52209 | 34921 ft | 459 kts | 135° |
| 2026-04-20 21:30 | 14.99871 | 76.57348 | 34922 ft | 459 kts | 135° |
| 2026-04-20 21:31 | 14.95880 | 76.62450 | 34931 ft | 459 kts | 135° |
| 2026-04-20 21:31 | 14.91827 | 76.67612 | 34927 ft | 459 kts | 135° |
| 2026-04-20 21:32 | 14.87802 | 76.72747 | 34925 ft | 460 kts | 135° |
| 2026-04-20 21:32 | 14.83782 | 76.77884 | 34923 ft | 459 kts | 135° |
| 2026-04-20 21:33 | 14.79759 | 76.83009 | 34918 ft | 459 kts | 135° |
| 2026-04-20 21:33 | 14.75760 | 76.88104 | 34921 ft | 459 kts | 135° |
| 2026-04-20 21:34 | 14.71738 | 76.93231 | 34920 ft | 459 kts | 135° |
| 2026-04-20 21:34 | 14.67716 | 76.98350 | 34918 ft | 460 kts | 135° |
| 2026-04-20 21:35 | 14.63684 | 77.03480 | 34917 ft | 460 kts | 135° |
| 2026-04-20 21:35 | 14.59724 | 77.08672 | 34905 ft | 464 kts | 129° |
| 2026-04-20 21:36 | 14.56745 | 77.14679 | 34911 ft | 474 kts | 121° |
| 2026-04-20 21:36 | 14.53983 | 77.20862 | 34915 ft | 475 kts | 121° |
| 2026-04-20 21:37 | 14.51214 | 77.27050 | 34907 ft | 475 kts | 121° |
| 2026-04-20 21:37 | 14.48437 | 77.33238 | 34907 ft | 475 kts | 121° |
| 2026-04-20 21:38 | 14.45648 | 77.39421 | 34892 ft | 475 kts | 121° |
| 2026-04-20 21:38 | 14.42852 | 77.45592 | 34904 ft | 475 kts | 121° |
| 2026-04-20 21:39 | 14.40062 | 77.51771 | 34904 ft | 475 kts | 121° |
| 2026-04-20 21:39 | 14.37273 | 77.57952 | 34890 ft | 475 kts | 121° |
| 2026-04-20 21:40 | 14.34480 | 77.64145 | 34895 ft | 476 kts | 121° |
| 2026-04-20 21:40 | 14.31683 | 77.70326 | 34893 ft | 476 kts | 121° |
| 2026-04-20 21:41 | 14.28884 | 77.76511 | 34893 ft | 476 kts | 121° |
| 2026-04-20 21:41 | 14.26081 | 77.82700 | 34884 ft | 476 kts | 121° |
| 2026-04-20 21:42 | 14.23267 | 77.88893 | 34881 ft | 477 kts | 122° |
| 2026-04-20 21:42 | 14.20458 | 77.95088 | 34882 ft | 477 kts | 122° |
| 2026-04-20 21:43 | 14.17657 | 78.01284 | 34894 ft | 477 kts | 121° |
| 2026-04-20 21:43 | 14.14848 | 78.07478 | 34893 ft | 477 kts | 121° |
| 2026-04-20 21:44 | 14.12017 | 78.13657 | 34887 ft | 477 kts | 121° |
| 2026-04-20 21:44 | 14.09191 | 78.19845 | 34886 ft | 477 kts | 121° |
| 2026-04-20 21:45 | 14.06389 | 78.26001 | 34893 ft | 478 kts | 121° |
| 2026-04-20 21:45 | 14.03571 | 78.32195 | 34893 ft | 477 kts | 121° |
| 2026-04-20 21:46 | 14.00747 | 78.38388 | 34589 ft | 478 kts | 121° |
| 2026-04-20 21:46 | 13.99330 | 78.41488 | 34356 ft | 479 kts | 121° |
| 2026-04-20 21:46 | 13.97909 | 78.44593 | 34131 ft | 480 kts | 121° |
| 2026-04-20 21:46 | 13.96484 | 78.47708 | 33904 ft | 482 kts | 121° |
| 2026-04-20 21:47 | 13.95054 | 78.50835 | 33655 ft | 483 kts | 121° |
| 2026-04-20 21:47 | 13.93605 | 78.54012 | 33389 ft | 484 kts | 121° |
| 2026-04-20 21:47 | 13.92194 | 78.57104 | 33135 ft | 484 kts | 121° |
| 2026-04-20 21:47 | 13.90758 | 78.60246 | 32891 ft | 486 kts | 121° |
| 2026-04-20 21:48 | 13.89314 | 78.63394 | 32643 ft | 487 kts | 121° |
| 2026-04-20 21:48 | 13.87868 | 78.66547 | 32390 ft | 488 kts | 121° |
| 2026-04-20 21:48 | 13.86416 | 78.69708 | 32127 ft | 489 kts | 120° |
| 2026-04-20 21:48 | 13.84962 | 78.72872 | 31883 ft | 490 kts | 120° |
| 2026-04-20 21:49 | 13.83505 | 78.76044 | 31643 ft | 491 kts | 120° |
| 2026-04-20 21:49 | 13.82043 | 78.79225 | 31397 ft | 492 kts | 120° |
| 2026-04-20 21:49 | 13.80580 | 78.82414 | 31175 ft | 490 kts | 120° |
| 2026-04-20 21:49 | 13.79148 | 78.85547 | 30928 ft | 477 kts | 120° |
| 2026-04-20 21:50 | 13.77759 | 78.88594 | 30691 ft | 465 kts | 120° |
| 2026-04-20 21:50 | 13.76402 | 78.91566 | 30463 ft | 454 kts | 120° |
| 2026-04-20 21:50 | 13.75071 | 78.94470 | 30238 ft | 443 kts | 120° |
| 2026-04-20 21:50 | 13.73767 | 78.97307 | 30011 ft | 435 kts | 120° |
| 2026-04-20 21:51 | 13.72477 | 79.00104 | 29736 ft | 431 kts | 120° |
| 2026-04-20 21:51 | 13.71192 | 79.02883 | 29472 ft | 429 kts | 120° |
| 2026-04-20 21:51 | 13.69915 | 79.05642 | 29206 ft | 426 kts | 120° |
| 2026-04-20 21:51 | 13.68647 | 79.08387 | 28937 ft | 422 kts | 120° |
| 2026-04-20 21:52 | 13.67394 | 79.11106 | 28688 ft | 419 kts | 119° |
| 2026-04-20 21:52 | 13.66151 | 79.13807 | 28422 ft | 417 kts | 119° |
| 2026-04-20 21:52 | 13.64911 | 79.16495 | 28169 ft | 414 kts | 119° |
| 2026-04-20 21:52 | 13.63679 | 79.19161 | 27913 ft | 412 kts | 119° |
| 2026-04-20 21:53 | 13.62456 | 79.21815 | 27663 ft | 410 kts | 119° |
| 2026-04-20 21:53 | 13.61242 | 79.24449 | 27404 ft | 406 kts | 118° |
| 2026-04-20 21:53 | 13.60037 | 79.27058 | 27158 ft | 403 kts | 118° |
| 2026-04-20 21:53 | 13.58836 | 79.29653 | 26903 ft | 401 kts | 118° |
| 2026-04-20 21:54 | 13.57642 | 79.32234 | 26670 ft | 399 kts | 118° |
| 2026-04-20 21:54 | 13.56458 | 79.34802 | 26421 ft | 397 kts | 118° |
| 2026-04-20 21:54 | 13.55282 | 79.37353 | 26190 ft | 394 kts | 118° |
| 2026-04-20 21:54 | 13.54112 | 79.39894 | 25956 ft | 392 kts | 118° |
| 2026-04-20 21:55 | 13.52949 | 79.42414 | 25721 ft | 390 kts | 118° |
| 2026-04-20 21:55 | 13.51788 | 79.44926 | 25469 ft | 387 kts | 117° |
| 2026-04-20 21:55 | 13.50636 | 79.47412 | 25039 ft | 384 kts | 117° |
| 2026-04-20 21:55 | 13.49486 | 79.49890 | 24554 ft | 384 kts | 117° |
| 2026-04-20 21:56 | 13.48339 | 79.52361 | 24063 ft | 383 kts | 117° |
| 2026-04-20 21:56 | 13.47194 | 79.54828 | 23566 ft | 383 kts | 117° |
| 2026-04-20 21:56 | 13.46049 | 79.57301 | 23016 ft | 382 kts | 117° |
| 2026-04-20 21:56 | 13.44911 | 79.59760 | 22504 ft | 380 kts | 116° |
| 2026-04-20 21:57 | 13.43777 | 79.62204 | 22009 ft | 378 kts | 117° |
| 2026-04-20 21:57 | 13.42558 | 79.64582 | 21514 ft | 375 kts | 125° |
| 2026-04-20 21:57 | 13.40905 | 79.66621 | 21247 ft | 366 kts | 134° |
| 2026-04-20 21:57 | 13.39180 | 79.68495 | 20979 ft | 359 kts | 133° |
| 2026-04-20 21:58 | 13.37482 | 79.70359 | 20561 ft | 354 kts | 133° |
| 2026-04-20 21:58 | 13.35818 | 79.72196 | 19868 ft | 350 kts | 133° |
| 2026-04-20 21:58 | 13.34169 | 79.74017 | 19206 ft | 348 kts | 132° |
| 2026-04-20 21:58 | 13.32527 | 79.75828 | 18872 ft | 344 kts | 132° |
| 2026-04-20 21:59 | 13.30894 | 79.77623 | 18416 ft | 340 kts | 131° |
| 2026-04-20 21:59 | 13.29290 | 79.79385 | 17860 ft | 335 kts | 131° |
| 2026-04-20 21:59 | 13.27706 | 79.81124 | 17408 ft | 333 kts | 132° |
| 2026-04-20 21:59 | 13.26122 | 79.82857 | 16992 ft | 332 kts | 132° |
| 2026-04-20 22:00 | 13.24542 | 79.84587 | 16581 ft | 332 kts | 131° |
| 2026-04-20 22:00 | 13.22967 | 79.86313 | 16230 ft | 329 kts | 131° |
| 2026-04-20 22:00 | 13.21406 | 79.88023 | 15846 ft | 327 kts | 131° |
| 2026-04-20 22:00 | 13.19869 | 79.89704 | 15383 ft | 319 kts | 131° |
| 2026-04-20 22:01 | 13.18397 | 79.91316 | 14988 ft | 309 kts | 131° |
| 2026-04-20 22:01 | 13.16939 | 79.92915 | 14615 ft | 307 kts | 131° |
| 2026-04-20 22:01 | 13.15477 | 79.94520 | 14232 ft | 308 kts | 131° |
| 2026-04-20 22:01 | 13.14010 | 79.96127 | 13855 ft | 309 kts | 131° |
| 2026-04-20 22:02 | 13.12551 | 79.97726 | 13584 ft | 302 kts | 131° |
| 2026-04-20 22:02 | 13.11125 | 79.99287 | 12970 ft | 299 kts | 131° |
| 2026-04-20 22:02 | 13.09709 | 80.00835 | 12322 ft | 296 kts | 131° |
| 2026-04-20 22:02 | 13.08303 | 80.02373 | 11683 ft | 294 kts | 130° |
| 2026-04-20 22:03 | 13.07114 | 80.04050 | 11053 ft | 289 kts | 114° |
| 2026-04-20 22:03 | 13.06523 | 80.05987 | 10441 ft | 284 kts | 96° |
| 2026-04-20 22:03 | 13.06564 | 80.07987 | 9831 ft | 280 kts | 78° |
| 2026-04-20 22:03 | 13.07152 | 80.09873 | 9149 ft | 278 kts | 69° |
| 2026-04-20 22:04 | 13.07840 | 80.11728 | 8445 ft | 277 kts | 69° |
| 2026-04-20 22:04 | 13.08520 | 80.13577 | 7778 ft | 276 kts | 70° |
| 2026-04-20 22:04 | 13.09192 | 80.15413 | 7102 ft | 275 kts | 70° |
| 2026-04-20 22:04 | 13.09864 | 80.17248 | 6441 ft | 274 kts | 70° |
| 2026-04-20 22:05 | 13.10532 | 80.19070 | 5783 ft | 272 kts | 71° |
| 2026-04-20 22:05 | 13.11197 | 80.20878 | 5102 ft | 270 kts | 71° |
| 2026-04-20 22:05 | 13.11858 | 80.22680 | 4395 ft | 270 kts | 71° |
| 2026-04-20 22:05 | 13.12518 | 80.24475 | 4029 ft | 269 kts | 72° |
| 2026-04-20 22:06 | 13.13182 | 80.26287 | 3970 ft | 273 kts | 72° |
| 2026-04-20 22:06 | 13.13863 | 80.28108 | 3968 ft | 274 kts | 71° |
| 2026-04-20 22:06 | 13.14541 | 80.29853 | 3973 ft | 253 kts | 70° |
| 2026-04-20 22:06 | 13.15179 | 80.31472 | 3966 ft | 237 kts | 71° |
| 2026-04-20 22:07 | 13.15669 | 80.32721 | 3967 ft | 232 kts | 71° |
| 2026-04-20 22:07 | 13.16018 | 80.34283 | 3961 ft | 226 kts | 96° |
| 2026-04-20 22:07 | 13.15599 | 80.35819 | 3970 ft | 221 kts | 124° |
| 2026-04-20 22:07 | 13.14556 | 80.36910 | 3899 ft | 217 kts | 151° |
| 2026-04-20 22:08 | 13.13121 | 80.37374 | 3654 ft | 214 kts | 175° |
| 2026-04-20 22:08 | 13.11653 | 80.37504 | 3375 ft | 214 kts | 175° |
| 2026-04-20 22:08 | 13.10180 | 80.37633 | 3171 ft | 211 kts | 175° |
| 2026-04-20 22:08 | 13.08708 | 80.37760 | 2990 ft | 208 kts | 177° |
| 2026-04-20 22:09 | 13.07313 | 80.37468 | 2708 ft | 208 kts | 209° |
| 2026-04-20 22:09 | 13.06583 | 80.36826 | 2518 ft | 212 kts | 231° |
| 2026-04-20 22:09 | 13.05778 | 80.34984 | 2310 ft | 216 kts | 246° |
| 2026-04-20 22:09 | 13.05253 | 80.33546 | 2303 ft | 214 kts | 245° |
| 2026-04-20 22:10 | 13.04741 | 80.32163 | 2313 ft | 198 kts | 245° |
| 2026-04-20 22:10 | 13.04418 | 80.31296 | 2315 ft | 186 kts | 245° |
| 2026-04-20 22:10 | 13.03977 | 80.30117 | 2263 ft | 170 kts | 243° |
| 2026-04-20 22:10 | 13.03561 | 80.29009 | 2113 ft | 164 kts | 243° |
| 2026-04-20 22:11 | 13.03162 | 80.27948 | 1927 ft | 159 kts | 244° |
| 2026-04-20 22:11 | 13.02645 | 80.26568 | 1678 ft | 148 kts | 244° |
| 2026-04-20 22:11 | 13.02403 | 80.25924 | 1559 ft | 144 kts | 244° |
| 2026-04-20 22:11 | 13.02053 | 80.24991 | 1383 ft | 137 kts | 245° |
| 2026-04-20 22:12 | 13.01717 | 80.24097 | 1203 ft | 134 kts | 244° |
| 2026-04-20 22:12 | 13.01383 | 80.23204 | 1006 ft | 135 kts | 245° |
| 2026-04-20 22:12 | 13.01048 | 80.22304 | 826 ft | 134 kts | 245° |
| 2026-04-20 22:12 | 13.00714 | 80.21415 | 717 ft | 133 kts | 245° |
| 2026-04-20 22:13 | 13.00379 | 80.20535 | 531 ft | 131 kts | 249° |
| 2026-04-20 22:13 | 13.00057 | 80.19664 | 383 ft | 131 kts | 249° |
| 2026-04-20 22:13 | 12.99724 | 80.18794 | 168 ft | 131 kts | 249° |
| 2026-04-20 22:13 | 12.99399 | 80.17937 | 61 ft | 122 kts | 251° |
| 2026-04-20 22:14 | 12.99147 | 80.17246 | 50 ft | 81 kts | 249° |
| 2026-04-20 22:14 | 12.98974 | 80.16784 | 52 ft | 61 kts | 249° |
| 2026-04-20 22:14 | 12.98846 | 80.16466 | 56 ft | 29 kts | 231° |
| 2026-04-20 22:14 | 12.98707 | 80.16328 | 51 ft | 24 kts | 217° |
| 2026-04-20 22:15 | 12.98673 | 80.16302 | 53 ft | 0 kts | 216° |
| 2026-04-20 22:16 | 12.98670 | 80.16300 | 55 ft | 3 kts | 213° |
| 2026-04-20 22:17 | 12.98636 | 80.16289 | 55 ft | 6 kts | 182° |
| 2026-04-20 22:17 | 12.98611 | 80.16313 | 53 ft | 6 kts | 108° |
| 2026-04-20 22:17 | 12.98631 | 80.16400 | 49 ft | 19 kts | 68° |
| 2026-04-20 22:17 | 12.98695 | 80.16569 | 53 ft | 31 kts | 69° |
| 2026-04-20 22:18 | 12.98724 | 80.16727 | 50 ft | 10 kts | 135° |
| 2026-04-20 22:18 | 12.98676 | 80.16747 | 51 ft | 7 kts | 156° |
| 2026-04-20 22:18 | 12.98630 | 80.16766 | 53 ft | 9 kts | 163° |
| 2026-04-20 22:18 | 12.98571 | 80.16712 | 51 ft | 16 kts | 248° |
| 2026-04-20 22:19 | 12.98524 | 80.16583 | 51 ft | 22 kts | 249° |
| 2026-04-20 22:19 | 12.98503 | 80.16478 | 50 ft | 7 kts | 329° |
| 2026-04-20 22:19 | 12.98543 | 80.16459 | 51 ft | 6 kts | 339° |
| 2026-04-20 22:19 | 12.98551 | 80.16455 | 51 ft | 0 kts | 337° |
| 2026-04-20 22:20 | 12.98550 | 80.16456 | 51 ft | 1 kts | 337° |
| 2026-04-20 22:20 | 12.98549 | 80.16456 | 51 ft | 0 kts | 338° |